createdAt,value
2018-07-28T00:01:26.647Z,10.70
2018-07-28T00:03:55.762Z,10.17
2018-07-28T00:06:24.884Z,9.53
2018-07-28T00:08:53.909Z,9.67
2018-07-28T00:11:22.584Z,9.70
2018-07-28T00:13:51.093Z,10.13
2018-07-28T00:16:19.762Z,13.73
2018-07-28T00:18:48.095Z,10.40
2018-07-28T00:21:16.744Z,12.13
2018-07-28T00:23:45.095Z,11.37
2018-07-28T00:26:18.580Z,11.83
2018-07-28T00:28:48.261Z,12.27
2018-07-28T00:31:17.045Z,11.33
2018-07-28T00:33:46.053Z,11.93
2018-07-28T00:36:14.860Z,10.63
2018-07-28T00:38:43.736Z,11.20
2018-07-28T00:41:12.722Z,11.33
2018-07-28T00:43:41.363Z,11.37
2018-07-28T00:46:09.910Z,10.10
2018-07-28T00:48:38.702Z,11.40
2018-07-28T00:51:07.696Z,11.47
2018-07-28T00:53:36.272Z,11.70
2018-07-28T00:56:05.517Z,11.30
2018-07-28T00:58:34.450Z,11.30
2018-07-28T01:01:03.111Z,13.37
2018-07-28T01:03:31.837Z,10.97
2018-07-28T01:06:00.800Z,12.03
2018-07-28T01:08:29.820Z,11.63
2018-07-28T01:10:58.772Z,11.80
2018-07-28T01:13:27.548Z,12.60
2018-07-28T01:15:56.130Z,12.37
2018-07-28T01:18:24.611Z,13.33
2018-07-28T01:20:53.583Z,12.47
2018-07-28T01:23:22.569Z,12.07
2018-07-28T01:25:51.189Z,12.50
2018-07-28T01:28:19.669Z,12.07
2018-07-28T01:30:48.306Z,13.17
2018-07-28T01:33:16.958Z,12.80
2018-07-28T01:35:45.463Z,11.70
2018-07-28T01:38:14.356Z,12.70
2018-07-28T01:40:43.018Z,12.77
2018-07-28T01:43:11.398Z,12.10
2018-07-28T01:45:40.375Z,12.83
2018-07-28T01:48:08.791Z,12.93
2018-07-28T01:50:37.747Z,12.17
2018-07-28T01:53:06.553Z,11.13
2018-07-28T01:55:35.370Z,12.23
2018-07-28T01:58:04.037Z,11.57
2018-07-28T02:00:32.583Z,11.90
2018-07-28T02:03:01.461Z,10.83
2018-07-28T02:05:29.980Z,10.60
2018-07-28T02:07:59.168Z,10.50
2018-07-28T02:10:27.872Z,10.73
2018-07-28T02:12:56.859Z,9.97
2018-07-28T02:15:25.247Z,10.53
2018-07-28T02:17:54.028Z,9.63
2018-07-28T02:20:22.886Z,9.90
2018-07-28T02:22:51.302Z,8.30
2018-07-28T02:25:19.682Z,8.73
2018-07-28T02:27:48.078Z,8.70
2018-07-28T02:30:17.056Z,8.40
2018-07-28T02:32:45.774Z,9.20
2018-07-28T02:35:14.971Z,8.13
2018-07-28T02:37:43.995Z,8.30
2018-07-28T02:40:12.813Z,8.37
2018-07-28T02:42:41.501Z,8.23
2018-07-28T02:45:10.376Z,7.53
2018-07-28T02:47:38.797Z,8.23
2018-07-28T02:50:07.507Z,8.03
2018-07-28T02:52:36.398Z,9.03
2018-07-28T02:55:05.173Z,8.80
2018-07-28T02:57:34.173Z,8.90
2018-07-28T03:00:02.855Z,8.60
2018-07-28T03:02:31.912Z,12.00
2018-07-28T03:05:00.531Z,8.37
2018-07-28T03:07:29.287Z,8.63
2018-07-28T03:09:58.248Z,8.23
2018-07-28T03:12:26.880Z,8.50
2018-07-28T03:14:55.237Z,8.73
2018-07-28T03:17:23.625Z,9.00
2018-07-28T03:19:52.414Z,9.77
2018-07-28T03:22:21.142Z,9.57
2018-07-28T03:24:50.004Z,9.27
2018-07-28T03:27:18.400Z,11.70
2018-07-28T03:29:47.684Z,9.27
2018-07-28T03:32:16.361Z,9.20
2018-07-28T03:34:45.357Z,8.60
2018-07-28T03:37:13.889Z,8.27
2018-07-28T03:39:42.773Z,8.87
2018-07-28T03:42:12.061Z,8.77
2018-07-28T03:44:40.520Z,9.87
2018-07-28T03:47:09.197Z,9.37
2018-07-28T03:49:37.830Z,8.93
2018-07-28T03:52:06.569Z,10.03
2018-07-28T03:54:35.505Z,10.13
2018-07-28T03:57:04.173Z,10.97
2018-07-28T03:59:33.065Z,11.77
2018-07-28T04:02:01.628Z,13.23
2018-07-28T04:04:30.822Z,10.20
2018-07-28T04:06:59.543Z,10.63
2018-07-28T04:09:28.178Z,10.40
2018-07-28T04:11:56.702Z,10.40
2018-07-28T04:14:25.342Z,11.47
2018-07-28T04:16:53.974Z,11.77
2018-07-28T04:19:22.754Z,11.30
2018-07-28T04:21:51.073Z,11.33
2018-07-28T04:24:19.708Z,11.80
2018-07-28T04:26:48.981Z,11.00
2018-07-28T04:29:17.821Z,11.93
2018-07-28T04:31:47.090Z,13.27
2018-07-28T04:34:16.118Z,12.00
2018-07-28T04:36:44.989Z,12.20
2018-07-28T04:39:14.021Z,11.77
2018-07-28T04:41:43.272Z,10.57
2018-07-28T04:44:11.675Z,11.27
2018-07-28T04:46:40.386Z,10.97
2018-07-28T04:49:09.358Z,11.33
2018-07-28T04:51:38.134Z,11.57
2018-07-28T04:54:06.811Z,11.67
2018-07-28T04:56:35.435Z,12.67
2018-07-28T04:59:04.687Z,13.00
2018-07-28T05:01:33.187Z,12.33
2018-07-28T05:04:01.793Z,12.13
2018-07-28T05:06:30.761Z,13.03
2018-07-28T05:08:59.158Z,12.63
2018-07-28T05:11:28.748Z,14.37
2018-07-28T05:13:57.453Z,14.77
2018-07-28T05:16:25.826Z,14.33
2018-07-28T05:18:54.319Z,14.57
2018-07-28T05:21:23.219Z,14.70
2018-07-28T05:23:52.546Z,14.93
2018-07-28T05:26:21.496Z,18.93
2018-07-28T05:28:50.221Z,14.00
2018-07-28T05:31:22.194Z,15.77
2018-07-28T05:33:50.924Z,14.63
2018-07-28T05:36:19.299Z,14.50
2018-07-28T05:38:47.850Z,14.63
2018-07-28T05:41:16.560Z,15.90
2018-07-28T05:43:45.507Z,15.30
2018-07-28T05:46:14.036Z,14.73
2018-07-28T05:48:43.047Z,14.87
2018-07-28T05:51:11.735Z,14.53
2018-07-28T05:53:40.742Z,15.23
2018-07-28T05:56:11.262Z,13.50
2018-07-28T05:58:40.670Z,14.30
2018-07-28T06:01:09.259Z,13.93
2018-07-28T06:03:37.928Z,14.57
2018-07-28T06:06:07.233Z,16.03
2018-07-28T06:08:36.058Z,14.67
2018-07-28T06:11:04.595Z,15.40
2018-07-28T06:13:32.974Z,15.30
2018-07-28T06:16:01.867Z,15.07
2018-07-28T06:18:30.627Z,13.83
2018-07-28T06:20:59.389Z,14.70
2018-07-28T06:23:28.129Z,15.93
2018-07-28T06:25:57.064Z,14.60
2018-07-28T06:28:25.984Z,14.77
2018-07-28T06:30:54.418Z,16.43
2018-07-28T06:33:23.156Z,14.97
2018-07-28T06:35:52.085Z,15.30
2018-07-28T06:38:20.768Z,15.20
2018-07-28T06:40:49.804Z,14.30
2018-07-28T06:43:18.244Z,15.73
2018-07-28T06:45:46.989Z,15.67
2018-07-28T06:48:15.971Z,16.43
2018-07-28T06:50:44.829Z,14.40
2018-07-28T06:53:13.291Z,23.07
2018-07-28T06:55:41.741Z,16.17
2018-07-28T06:58:10.266Z,14.90
2018-07-28T07:00:39.275Z,14.93
2018-07-28T07:03:07.782Z,18.93
2018-07-28T07:05:36.333Z,16.47
2018-07-28T07:08:05.315Z,17.03
2018-07-28T07:10:34.135Z,15.17
2018-07-28T07:13:02.712Z,15.10
2018-07-28T07:15:31.478Z,13.93
2018-07-28T07:18:00.375Z,12.13
2018-07-28T07:20:28.876Z,13.53
2018-07-28T07:22:57.460Z,12.87
2018-07-28T07:25:26.156Z,12.53
2018-07-28T07:27:54.802Z,14.07
2018-07-28T07:30:23.229Z,12.67
2018-07-28T07:32:51.665Z,15.43
2018-07-28T07:35:20.353Z,13.30
2018-07-28T07:37:48.636Z,13.17
2018-07-28T07:40:16.998Z,15.07
2018-07-28T07:42:45.298Z,13.87
2018-07-28T07:45:13.602Z,12.97
2018-07-28T07:47:42.466Z,11.47
2018-07-28T07:50:11.154Z,14.73
2018-07-28T07:52:39.534Z,12.20
2018-07-28T07:55:08.142Z,20.03
2018-07-28T07:57:36.587Z,12.47
2018-07-28T08:00:05.005Z,13.43
2018-07-28T08:02:33.341Z,14.83
2018-07-28T08:05:02.045Z,14.07
2018-07-28T08:07:30.514Z,17.57
2018-07-28T08:09:58.893Z,13.73
2018-07-28T08:12:27.250Z,12.70
2018-07-28T08:14:55.549Z,15.40
2018-07-28T08:17:24.281Z,14.97
2018-07-28T08:19:52.875Z,12.47
2018-07-28T08:22:21.730Z,18.43
2018-07-28T08:24:50.648Z,13.03
2018-07-28T08:27:19.703Z,15.10
2018-07-28T08:29:48.307Z,14.60
2018-07-28T08:32:16.976Z,14.57
2018-07-28T08:34:45.975Z,11.90
2018-07-28T08:37:14.367Z,12.67
2018-07-28T08:39:42.725Z,11.80
2018-07-28T08:42:11.150Z,13.07
2018-07-28T08:44:40.152Z,12.00
2018-07-28T08:47:08.925Z,12.40
2018-07-28T08:49:37.601Z,12.60
2018-07-28T08:52:06.480Z,12.50
2018-07-28T08:54:35.053Z,12.83
2018-07-28T08:57:03.545Z,12.57
2018-07-28T08:59:32.231Z,12.83
2018-07-28T09:02:00.952Z,13.70
2018-07-28T09:04:29.682Z,13.13
2018-07-28T09:06:58.306Z,13.30
2018-07-28T09:09:27.286Z,13.27
2018-07-28T09:11:55.779Z,12.93
2018-07-28T09:14:24.361Z,14.43
2018-07-28T09:16:53.032Z,13.63
2018-07-28T09:19:21.984Z,14.10
2018-07-28T09:21:50.259Z,13.57
2018-07-28T09:24:18.794Z,14.37
2018-07-28T09:26:47.783Z,13.90
2018-07-28T09:29:16.780Z,13.43
2018-07-28T09:31:45.484Z,12.80
2018-07-28T09:34:14.206Z,13.33
2018-07-28T09:36:43.085Z,11.97
2018-07-28T09:39:12.470Z,12.23
2018-07-28T09:41:41.740Z,12.10
2018-07-28T09:44:10.763Z,12.10
2018-07-28T09:46:39.525Z,12.10
2018-07-28T09:49:08.405Z,11.57
2018-07-28T09:51:37.436Z,17.97
2018-07-28T09:54:06.397Z,21.17
2018-07-28T09:56:35.096Z,13.43
2018-07-28T09:59:03.674Z,11.73
2018-07-28T10:01:32.150Z,13.07
2018-07-28T10:04:00.454Z,12.73
2018-07-28T10:06:29.321Z,12.57
2018-07-28T10:08:58.562Z,12.17
2018-07-28T10:11:27.212Z,11.07
2018-07-28T10:13:55.759Z,12.33
2018-07-28T10:16:24.993Z,10.53
2018-07-28T10:18:53.571Z,11.17
2018-07-28T10:21:22.271Z,10.33
2018-07-28T10:23:50.961Z,10.67
2018-07-28T10:26:19.440Z,11.17
2018-07-28T10:28:48.334Z,12.17
2018-07-28T10:31:16.902Z,11.00
2018-07-28T10:33:45.943Z,10.00
2018-07-28T10:36:14.509Z,11.37
2018-07-28T10:38:42.861Z,11.13
2018-07-28T10:41:11.780Z,13.33
2018-07-28T10:43:40.771Z,14.20
2018-07-28T10:46:09.047Z,14.53
2018-07-28T10:48:37.356Z,18.70
2018-07-28T10:51:05.949Z,16.10
2018-07-28T10:53:34.369Z,17.97
2018-07-28T10:56:03.016Z,15.30
2018-07-28T10:58:31.984Z,18.67
2018-07-28T11:01:01.020Z,14.93
2018-07-28T11:03:29.728Z,17.70
2018-07-28T11:05:58.433Z,14.83
2018-07-28T11:08:27.102Z,16.17
2018-07-28T12:32:57.739Z,11.87
2018-07-28T12:35:26.415Z,14.97
2018-07-28T12:37:54.787Z,15.27
2018-07-28T12:40:23.696Z,10.17
2018-07-28T12:42:52.478Z,17.07
2018-07-28T12:45:20.953Z,11.50
2018-07-28T12:47:49.720Z,14.87
2018-07-28T12:50:18.542Z,9.53
2018-07-28T12:52:47.157Z,16.62
2018-07-28T12:55:15.917Z,10.87
2018-07-28T12:57:44.868Z,9.28
2018-07-28T13:00:13.894Z,11.53
2018-07-28T13:02:42.260Z,9.67
2018-07-28T13:05:10.982Z,27.90
2018-07-28T13:07:39.766Z,19.02
2018-07-28T13:10:09.062Z,15.58
2018-07-28T13:12:37.891Z,22.17
2018-07-28T13:15:06.326Z,20.60
2018-07-28T13:17:34.855Z,14.35
2018-07-28T13:20:03.473Z,18.70
2018-07-28T13:22:32.354Z,21.48
2018-07-28T13:25:00.848Z,33.80
2018-07-28T13:27:29.475Z,25.57
2018-07-28T13:29:58.170Z,20.60
2018-07-28T13:32:27.163Z,20.63
2018-07-28T13:34:56.117Z,22.47
2018-07-28T13:37:25.101Z,22.02
2018-07-28T13:39:53.836Z,17.20
2018-07-28T13:42:22.487Z,19.40
2018-07-28T13:44:51.182Z,18.05
2018-07-28T13:47:19.555Z,19.07
2018-07-28T13:49:47.956Z,15.68
2018-07-28T13:52:16.958Z,14.47
2018-07-28T13:54:45.618Z,13.85
2018-07-28T13:57:14.202Z,13.43
2018-07-28T13:59:42.771Z,11.67
2018-07-28T14:02:11.761Z,11.57
2018-07-28T14:04:40.458Z,13.23
2018-07-28T14:07:09.106Z,11.37
2018-07-28T14:09:38.085Z,11.53
2018-07-28T14:12:06.830Z,13.33
2018-07-28T14:14:35.531Z,11.97
2018-07-28T14:17:04.747Z,84.30
2018-07-28T14:19:33.417Z,79.70
2018-07-28T14:22:02.043Z,115.40
2018-07-28T14:24:30.556Z,148.50
2018-07-28T14:26:59.499Z,138.03
2018-07-28T14:29:28.191Z,125.40
2018-07-28T14:31:57.023Z,182.20
2018-07-28T14:34:25.516Z,144.77
2018-07-28T14:36:54.553Z,58.60
2018-07-28T14:39:23.617Z,18.83
2018-07-28T14:41:52.182Z,12.67
2018-07-28T14:44:20.817Z,10.53
2018-07-28T14:46:49.865Z,20.07
2018-07-28T14:49:18.279Z,18.80
2018-07-28T14:51:47.236Z,16.27
2018-07-28T14:54:16.564Z,20.83
2018-07-28T14:56:45.061Z,29.70
2018-07-28T14:59:13.626Z,38.37
2018-07-28T15:01:42.244Z,40.33
2018-07-28T15:04:10.843Z,26.53
2018-07-28T15:06:39.521Z,31.33
2018-07-28T15:09:09.293Z,28.40
2018-07-28T15:11:37.729Z,24.00
2018-07-28T15:14:06.481Z,20.50
2018-07-28T15:16:35.064Z,19.90
2018-07-28T15:19:04.137Z,21.93
2018-07-28T15:21:32.885Z,20.53
2018-07-28T15:24:01.407Z,14.30
2018-07-28T15:26:29.772Z,16.30
2018-07-28T15:28:58.312Z,16.70
2018-07-28T15:31:26.940Z,13.63
2018-07-28T15:33:55.888Z,14.63
2018-07-28T15:36:24.843Z,14.20
2018-07-28T15:38:53.562Z,16.43
2018-07-28T15:41:22.683Z,19.07
2018-07-28T15:43:51.212Z,16.00
2018-07-28T15:46:19.877Z,21.07
2018-07-28T15:48:48.379Z,19.90
2018-07-28T15:51:17.070Z,17.20
2018-07-28T15:53:45.931Z,19.60
2018-07-28T15:56:14.383Z,13.87
2018-07-28T15:58:43.326Z,12.10
2018-07-28T16:01:12.353Z,15.30
2018-07-28T16:03:41.001Z,18.90
2018-07-28T16:06:09.688Z,15.40
2018-07-28T16:08:38.238Z,15.40
2018-07-28T16:11:06.858Z,12.37
2018-07-28T16:13:35.780Z,15.63
2018-07-28T16:16:04.570Z,11.13
2018-07-28T16:18:33.734Z,10.73
2018-07-28T16:21:02.493Z,10.00
2018-07-28T16:23:31.515Z,9.60
2018-07-28T16:26:00.199Z,12.17
2018-07-28T16:28:29.130Z,13.77
2018-07-28T16:30:57.777Z,11.40
2018-07-28T16:33:26.157Z,12.47
2018-07-28T16:35:54.858Z,9.70
2018-07-28T16:38:23.641Z,12.43
2018-07-28T16:40:52.230Z,10.07
2018-07-28T16:43:20.904Z,12.27
2018-07-28T16:45:50.206Z,8.53
2018-07-28T16:48:18.570Z,9.30
2018-07-28T16:50:46.850Z,9.27
2018-07-28T16:53:15.698Z,11.73
2018-07-28T16:55:44.144Z,13.67
2018-07-28T16:58:12.470Z,12.23
2018-07-28T17:00:41.099Z,10.50
2018-07-28T17:03:09.580Z,11.37
2018-07-28T17:05:38.509Z,12.10
2018-07-28T17:08:07.468Z,9.63
2018-07-28T17:10:35.918Z,10.83
2018-07-28T17:13:04.894Z,10.97
2018-07-28T17:15:33.527Z,17.30
2018-07-28T17:18:01.926Z,12.63
2018-07-28T17:20:30.933Z,14.07
2018-07-28T17:22:59.932Z,11.73
2018-07-28T17:25:28.583Z,13.47
2018-07-28T17:27:57.311Z,12.23
2018-07-28T17:30:25.958Z,11.77
2018-07-28T17:32:54.952Z,15.23
2018-07-28T17:35:23.967Z,13.70
2018-07-28T17:37:52.358Z,10.30
2018-07-28T17:40:21.008Z,11.00
2018-07-28T17:42:49.724Z,12.83
2018-07-28T17:45:18.602Z,12.00
2018-07-28T17:47:47.206Z,11.00
2018-07-28T17:50:15.756Z,11.87
2018-07-28T17:52:44.166Z,10.63
2018-07-28T17:55:12.650Z,17.77
2018-07-28T17:57:41.210Z,14.67
2018-07-28T18:00:09.703Z,17.37
2018-07-28T18:02:38.455Z,18.83
2018-07-28T18:05:07.325Z,20.97
2018-07-28T18:07:35.795Z,18.70
2018-07-28T18:10:04.699Z,14.27
2018-07-28T18:12:33.340Z,14.37
2018-07-28T18:15:01.869Z,13.13
2018-07-28T18:17:30.999Z,13.10
2018-07-28T18:19:59.402Z,14.93
2018-07-28T18:22:28.094Z,17.40
2018-07-28T18:24:56.562Z,12.23
2018-07-28T18:27:25.471Z,17.63
2018-07-28T18:29:54.116Z,13.07
2018-07-28T18:32:23.052Z,13.20
2018-07-28T18:34:51.969Z,17.43
2018-07-28T18:37:21.034Z,15.40
2018-07-28T18:39:49.596Z,15.10
2018-07-28T18:42:18.555Z,15.87
2018-07-28T18:44:47.175Z,13.93
2018-07-28T18:47:15.560Z,15.27
2018-07-28T18:49:44.208Z,12.77
2018-07-28T18:52:12.621Z,13.40
2018-07-28T18:54:41.594Z,11.70
2018-07-28T18:57:10.315Z,11.77
2018-07-28T18:59:39.306Z,12.23
2018-07-28T19:02:07.708Z,12.23
2018-07-28T19:04:36.397Z,13.47
2018-07-28T19:07:05.381Z,14.07
2018-07-28T19:09:39.154Z,14.87
2018-07-28T19:12:07.972Z,13.77
2018-07-28T19:14:39.104Z,13.80
2018-07-28T19:17:07.866Z,14.07
2018-07-28T19:19:36.508Z,19.60
2018-07-28T19:22:09.206Z,12.73
2018-07-28T19:24:38.239Z,13.60
2018-07-28T19:27:06.502Z,14.67
2018-07-28T19:29:40.443Z,13.60
2018-07-28T19:32:09.181Z,14.87
2018-07-28T19:38:08.848Z,13.97
2018-07-28T19:40:37.343Z,13.47
2018-07-28T19:43:06.219Z,14.07
2018-07-28T19:45:35.013Z,14.53
2018-07-28T19:48:03.386Z,15.57
2018-07-28T19:50:32.009Z,13.33
2018-07-28T19:53:00.670Z,14.23
2018-07-28T19:55:29.143Z,19.00
2018-07-28T19:57:57.767Z,15.47
2018-07-28T20:00:26.545Z,17.93
2018-07-28T20:02:55.222Z,16.03
2018-07-28T20:05:24.124Z,17.00
2018-07-28T20:07:53.121Z,15.60
2018-07-28T20:10:22.164Z,15.47
2018-07-28T20:12:51.252Z,16.13
2018-07-28T20:15:20.105Z,15.33
2018-07-28T20:17:48.602Z,18.67
2018-07-28T20:20:17.265Z,15.63
2018-07-28T20:22:45.579Z,15.90
2018-07-28T20:25:13.914Z,17.60
2018-07-28T20:27:42.623Z,16.60
2018-07-28T20:30:11.072Z,16.63
2018-07-28T20:32:39.767Z,16.43
2018-07-28T20:35:08.507Z,16.30
2018-07-28T20:37:37.042Z,16.70
2018-07-28T20:40:05.716Z,16.63
2018-07-28T20:42:34.246Z,16.90
2018-07-28T20:45:03.085Z,17.00
2018-07-28T20:47:31.471Z,17.63
2018-07-28T20:49:59.866Z,17.33
2018-07-28T20:52:28.326Z,19.73
2018-07-28T20:54:56.703Z,18.63
2018-07-28T20:57:24.998Z,18.73
2018-07-28T20:59:53.400Z,20.23
2018-07-28T21:02:22.055Z,21.97
2018-07-28T21:04:50.764Z,18.70
2018-07-28T21:07:19.456Z,19.97
2018-07-28T21:09:47.818Z,21.43
2018-07-28T21:12:16.502Z,19.40
2018-07-28T21:14:45.532Z,20.90
2018-07-28T21:17:14.220Z,19.57
2018-07-28T21:19:42.556Z,20.37
2018-07-28T21:22:11.538Z,20.47
2018-07-28T21:24:40.250Z,21.83
2018-07-28T21:27:08.577Z,20.60
2018-07-28T21:29:37.300Z,20.57
2018-07-28T21:32:05.723Z,20.10
2018-07-28T21:34:34.742Z,19.10
2018-07-28T21:37:03.356Z,18.87
2018-07-28T21:39:32.632Z,18.87
2018-07-28T21:42:01.444Z,18.60
2018-07-28T21:44:29.741Z,18.93
2018-07-28T21:46:58.417Z,17.33
2018-07-28T21:49:27.358Z,17.90
2018-07-28T21:51:56.175Z,17.23
2018-07-28T21:54:24.856Z,17.77
2018-07-28T21:56:54.018Z,17.60
2018-07-28T21:59:22.371Z,17.77
2018-07-28T22:01:50.849Z,16.97
2018-07-28T22:04:24.676Z,17.27
2018-07-28T22:06:53.255Z,16.83
2018-07-28T22:09:21.605Z,16.87
2018-07-28T22:11:49.906Z,15.90
2018-07-28T22:14:18.202Z,16.70
2018-07-28T22:16:47.103Z,16.90
2018-07-28T22:19:15.758Z,17.30
2018-07-28T22:21:44.453Z,16.90
2018-07-28T22:24:13.119Z,17.07
2018-07-28T22:26:41.814Z,19.03
2018-07-28T22:29:10.280Z,17.53
2018-07-28T22:31:38.979Z,16.53
2018-07-28T22:34:07.346Z,17.70
2018-07-28T22:36:36.033Z,16.50
2018-07-28T22:39:05.859Z,17.43
2018-07-28T22:41:34.260Z,18.10
2018-07-28T22:44:02.609Z,16.87
2018-07-28T22:46:31.300Z,17.23
2018-07-28T22:48:59.773Z,18.80
2018-07-28T22:51:28.102Z,16.97
2018-07-28T22:53:56.735Z,19.53
2018-07-28T22:56:25.219Z,17.83
2018-07-28T22:58:53.599Z,18.10
2018-07-28T23:01:22.762Z,18.10
2018-07-28T23:03:51.530Z,17.40
2018-07-28T23:06:20.287Z,18.93
2018-07-28T23:08:48.978Z,19.17
2018-07-28T23:11:17.666Z,19.27
2018-07-28T23:13:46.591Z,19.87
2018-07-28T23:16:15.244Z,19.33
2018-07-28T23:18:44.142Z,20.97
2018-07-28T23:21:12.939Z,19.33
2018-07-28T23:23:41.599Z,18.30
2018-07-28T23:26:09.967Z,17.67
2018-07-28T23:28:38.394Z,17.13
2018-07-28T23:31:07.349Z,15.37
2018-07-28T23:33:36.035Z,15.70
2018-07-28T23:36:04.793Z,15.37
2018-07-28T23:38:33.401Z,12.97
2018-07-28T23:41:02.088Z,14.77
2018-07-28T23:43:30.830Z,13.80
2018-07-28T23:46:00.084Z,13.67
2018-07-28T23:48:28.557Z,13.40
2018-07-28T23:50:57.255Z,13.40
2018-07-28T23:53:26.465Z,12.93
2018-07-28T23:55:55.543Z,12.70
2018-07-28T23:58:24.464Z,12.80
